Time;durP1;ratioP1;P1;durP2;ratioP2;P2;SDS_P1;SDS_P2;PMS_P1;PMS_P2;Temp;Humidity;BMP_temperature;BMP_pressure;BME280_temperature;BME280_humidity;BME280_pressure;Samples;Min_cycle;Max_cycle;Signal;HPM_P1;HPM_P2
2022/11/28 00:01:23;;;;;;;6.37;4.57;;;;;;;;;;5011069;28;20264;-32
2022/11/28 00:03:52;;;;;;;6.00;4.60;;;;;;;;;;5027643;28;20203;-37
2022/11/28 00:06:20;;;;;;;5.77;4.73;;;;;;;;;;5032071;28;20270;-38
2022/11/28 00:08:47;;;;;;;5.53;4.37;;;;;;;;;;5028556;28;20207;-34
2022/11/28 00:11:16;;;;;;;4.73;3.97;;;;;;;;;;5022520;28;20235;-38
2022/11/28 00:13:43;;;;;;;5.83;4.77;;;;;;;;;;5028012;28;20209;-37
2022/11/28 00:16:14;;;;;;;6.07;3.93;;;;;;;;;;5021925;28;20206;-33
2022/11/28 00:18:41;;;;;;;5.63;4.00;;;;;;;;;;5031889;28;20209;-34
2022/11/28 00:21:10;;;;;;;5.30;4.80;;;;;;;;;;5033027;28;20784;-39
2022/11/28 00:23:37;;;;;;;5.47;4.17;;;;;;;;;;5051837;28;20217;-38
2022/11/28 00:26:05;;;;;;;5.40;4.43;;;;;;;;;;5018014;28;20505;-35
2022/11/28 00:28:32;;;;;;;4.30;3.70;;;;;;;;;;5022600;28;20203;-30
2022/11/28 00:31:00;;;;;;;5.53;4.37;;;;;;;;;;5020796;28;20229;-37
2022/11/28 00:33:27;;;;;;;5.33;4.50;;;;;;;;;;5021256;28;20206;-32
2022/11/28 00:35:58;;;;;;;5.23;3.97;;;;;;;;;;5029886;28;20213;-33
2022/11/28 00:38:27;;;;;;;6.53;4.50;;;;;;;;;;5019797;28;20487;-32
2022/11/28 00:41:04;;;;;;;6.13;4.53;;;;;;;;;;5027017;28;20428;-32
2022/11/28 00:43:32;;;;;;;6.27;4.33;;;;;;;;;;5019426;28;20207;-36
2022/11/28 00:45:59;;;;;;;4.73;4.17;;;;;;;;;;5020222;28;20203;-36
2022/11/28 00:48:26;;;;;;;7.73;5.07;;;;;;;;;;5024255;28;20199;-39
2022/11/28 00:50:53;;;;;;;4.80;4.27;;;;;;;;;;5014420;28;20222;-37
2022/11/28 00:53:20;;;;;;;5.83;4.33;;;;;;;;;;5026988;28;20203;-34
2022/11/28 00:55:49;;;;;;;5.13;3.90;;;;;;;;;;5030591;28;20203;-35
2022/11/28 00:58:16;;;;;;;5.43;4.43;;;;;;;;;;5026756;28;20207;-35
2022/11/28 01:00:43;;;;;;;5.07;4.37;;;;;;;;;;5014193;28;20435;-32
2022/11/28 01:03:10;;;;;;;6.57;4.70;;;;;;;;;;5022080;28;20236;-31
2022/11/28 01:05:42;;;;;;;5.67;3.70;;;;;;;;;;5031876;28;20198;-32
2022/11/28 01:08:09;;;;;;;5.67;4.30;;;;;;;;;;5032856;28;20207;-32
2022/11/28 01:10:41;;;;;;;7.53;4.57;;;;;;;;;;5023371;28;20309;-33
2022/11/28 01:13:09;;;;;;;4.63;4.10;;;;;;;;;;5030782;28;20211;-31
2022/11/28 01:15:37;;;;;;;5.67;4.43;;;;;;;;;;5022464;28;20206;-36
2022/11/28 01:18:04;;;;;;;6.23;4.50;;;;;;;;;;5022211;28;20213;-32
2022/11/28 01:20:31;;;;;;;4.60;3.77;;;;;;;;;;5035218;28;20225;-35
2022/11/28 01:22:58;;;;;;;4.77;3.83;;;;;;;;;;5029134;28;20209;-31
2022/11/28 01:25:25;;;;;;;4.23;3.40;;;;;;;;;;5025899;28;20209;-32
2022/11/28 01:27:52;;;;;;;6.33;4.10;;;;;;;;;;5028561;28;20203;-30
2022/11/28 01:30:21;;;;;;;4.77;4.37;;;;;;;;;;5019038;28;20222;-31
2022/11/28 01:32:48;;;;;;;5.33;4.10;;;;;;;;;;5029006;28;20221;-31
2022/11/28 01:35:15;;;;;;;6.50;4.40;;;;;;;;;;5029446;28;20206;-32
2022/11/28 01:37:42;;;;;;;5.87;4.33;;;;;;;;;;5030040;28;20218;-35
2022/11/28 01:40:11;;;;;;;5.17;4.43;;;;;;;;;;5026100;28;20253;-36
2022/11/28 01:42:39;;;;;;;5.90;4.17;;;;;;;;;;5029974;28;20292;-36
2022/11/28 01:45:13;;;;;;;5.27;4.37;;;;;;;;;;5018555;28;20311;-32
2022/11/28 01:47:41;;;;;;;6.03;4.60;;;;;;;;;;5028330;28;20233;-35
2022/11/28 01:50:09;;;;;;;4.60;4.10;;;;;;;;;;5030900;28;20203;-30
2022/11/28 01:52:38;;;;;;;4.90;4.13;;;;;;;;;;5036866;28;20202;-36
2022/11/28 01:55:06;;;;;;;4.80;4.13;;;;;;;;;;5026435;28;20289;-32
2022/11/28 01:57:33;;;;;;;5.33;4.23;;;;;;;;;;5029962;28;20266;-31
2022/11/28 02:00:02;;;;;;;5.37;4.60;;;;;;;;;;5021562;28;20226;-33
2022/11/28 02:02:32;;;;;;;5.57;4.37;;;;;;;;;;5026595;28;20225;-31
2022/11/28 02:05:02;;;;;;;5.20;4.17;;;;;;;;;;5029100;28;20485;-39
2022/11/28 02:07:29;;;;;;;5.40;4.50;;;;;;;;;;5030305;28;20385;-30
2022/11/28 02:09:56;;;;;;;4.73;4.10;;;;;;;;;;5026762;28;20206;-31
2022/11/28 02:12:29;;;;;;;5.63;4.63;;;;;;;;;;5027290;28;20248;-28
2022/11/28 02:15:02;;;;;;;6.13;3.97;;;;;;;;;;5021447;28;20210;-36
2022/11/28 02:17:34;;;;;;;4.90;4.30;;;;;;;;;;5014387;28;20207;-34
2022/11/28 02:20:19;;;;;;;4.10;3.43;;;;;;;;;;5030084;28;20230;-32
2022/11/28 02:22:55;;;;;;;6.70;4.57;;;;;;;;;;5027652;28;20203;-31
2022/11/28 02:25:34;;;;;;;5.37;4.43;;;;;;;;;;5030810;28;20687;-36
2022/11/28 02:28:20;;;;;;;5.20;4.10;;;;;;;;;;5029806;28;20202;-31
2022/11/28 02:30:53;;;;;;;5.13;3.80;;;;;;;;;;5025631;28;20224;-33
2022/11/28 02:33:24;;;;;;;6.27;4.00;;;;;;;;;;5029130;28;20217;-31
2022/11/28 02:35:56;;;;;;;5.50;4.40;;;;;;;;;;5035375;28;20198;-31
2022/11/28 02:38:29;;;;;;;6.77;4.33;;;;;;;;;;5030006;28;20213;-29
2022/11/28 02:40:59;;;;;;;5.40;4.13;;;;;;;;;;5023250;28;20245;-32
2022/11/28 02:43:31;;;;;;;6.00;4.73;;;;;;;;;;5022221;28;20210;-38
2022/11/28 02:46:00;;;;;;;4.93;3.80;;;;;;;;;;5019090;28;20210;-35
2022/11/28 02:48:32;;;;;;;7.70;4.50;;;;;;;;;;5031621;28;20207;-34
2022/11/28 02:51:01;;;;;;;5.63;4.20;;;;;;;;;;5033426;28;20223;-33
2022/11/28 02:53:31;;;;;;;6.37;4.43;;;;;;;;;;5030257;28;20206;-30
2022/11/28 02:55:58;;;;;;;4.33;3.80;;;;;;;;;;5024342;28;20213;-32
2022/11/28 02:58:25;;;;;;;6.03;4.50;;;;;;;;;;5033569;28;20202;-34
2022/11/28 03:00:52;;;;;;;6.13;4.07;;;;;;;;;;5015831;28;20233;-34
2022/11/28 03:03:38;;;;;;;5.47;4.37;;;;;;;;;;5024804;28;20582;-32
2022/11/28 03:06:10;;;;;;;5.97;4.77;;;;;;;;;;5040820;28;20199;-34
2022/11/28 03:08:43;;;;;;;6.77;4.40;;;;;;;;;;5029439;28;20273;-33
2022/11/28 03:11:14;;;;;;;6.27;4.40;;;;;;;;;;5023918;28;20376;-30
2022/11/28 03:13:48;;;;;;;6.23;4.77;;;;;;;;;;5032600;28;20209;-34
2022/11/28 03:16:20;;;;;;;6.57;4.47;;;;;;;;;;5024848;28;20305;-28
2022/11/28 03:18:53;;;;;;;4.43;3.83;;;;;;;;;;5032880;28;20214;-30
2022/11/28 03:21:26;;;;;;;6.03;4.40;;;;;;;;;;5043441;28;20227;-36
2022/11/28 03:23:56;;;;;;;5.27;4.40;;;;;;;;;;5024408;28;20209;-35
2022/11/28 03:26:27;;;;;;;5.33;4.60;;;;;;;;;;5032225;28;20203;-34
2022/11/28 03:28:59;;;;;;;4.30;3.90;;;;;;;;;;5032638;28;20206;-34
2022/11/28 03:33:58;;;;;;;4.87;4.13;;;;;;;;;;5031134;28;20210;-38
2022/11/28 03:36:27;;;;;;;5.57;4.50;;;;;;;;;;5032191;28;20294;-30
2022/11/28 03:38:59;;;;;;;6.30;4.43;;;;;;;;;;5021706;28;20202;-33
2022/11/28 03:41:30;;;;;;;5.73;4.33;;;;;;;;;;5037392;28;20222;-38
2022/11/28 03:43:58;;;;;;;5.43;4.73;;;;;;;;;;5052572;28;20202;-41
2022/11/28 03:46:28;;;;;;;5.73;4.20;;;;;;;;;;5040747;28;20220;-41
2022/11/28 03:48:58;;;;;;;5.30;4.53;;;;;;;;;;5051665;28;20205;-38
2022/11/28 03:51:28;;;;;;;4.37;3.90;;;;;;;;;;5049946;28;20218;-36
2022/11/28 03:54:00;;;;;;;4.00;3.60;;;;;;;;;;5044427;28;20206;-33
2022/11/28 03:56:32;;;;;;;6.87;4.20;;;;;;;;;;5043942;28;20208;-38
2022/11/28 03:59:02;;;;;;;4.90;4.17;;;;;;;;;;5050044;28;20202;-38
2022/11/28 04:01:32;;;;;;;3.50;3.20;;;;;;;;;;5034829;28;20219;-40
2022/11/28 04:04:07;;;;;;;6.33;4.27;;;;;;;;;;5048989;28;20194;-32
2022/11/28 04:06:38;;;;;;;4.23;3.80;;;;;;;;;;5050763;28;20214;-39
2022/11/28 04:09:09;;;;;;;5.97;4.10;;;;;;;;;;5040010;28;20202;-38
2022/11/28 04:11:39;;;;;;;4.30;3.73;;;;;;;;;;5051733;28;20213;-32
2022/11/28 04:14:12;;;;;;;4.77;3.60;;;;;;;;;;5047297;28;20218;-34
2022/11/28 04:16:46;;;;;;;4.47;3.80;;;;;;;;;;5047881;28;20208;-34
2022/11/28 04:19:17;;;;;;;4.70;3.70;;;;;;;;;;5051191;28;20202;-33
2022/11/28 04:21:46;;;;;;;4.33;3.70;;;;;;;;;;5046431;28;20300;-39
2022/11/28 04:24:15;;;;;;;5.60;4.40;;;;;;;;;;5043005;28;20206;-38
2022/11/28 04:26:44;;;;;;;5.03;3.93;;;;;;;;;;5044228;28;20202;-32
2022/11/28 04:29:14;;;;;;;8.57;4.27;;;;;;;;;;5047199;28;20296;-35
2022/11/28 04:31:43;;;;;;;4.43;3.80;;;;;;;;;;5036225;28;20321;-34
2022/11/28 04:34:12;;;;;;;4.77;4.07;;;;;;;;;;5049618;28;20244;-34
2022/11/28 04:36:43;;;;;;;4.80;3.70;;;;;;;;;;5047906;28;20202;-41
2022/11/28 04:39:12;;;;;;;5.00;4.00;;;;;;;;;;5049155;28;20252;-39
2022/11/28 04:41:41;;;;;;;4.30;3.67;;;;;;;;;;5050686;28;20224;-40
2022/11/28 04:44:10;;;;;;;6.60;4.23;;;;;;;;;;5048161;28;20206;-34
2022/11/28 04:46:40;;;;;;;5.67;4.57;;;;;;;;;;5038062;28;20206;-36
2022/11/28 04:49:07;;;;;;;7.43;4.80;;;;;;;;;;5050752;28;20198;-37
2022/11/28 04:51:40;;;;;;;5.90;4.27;;;;;;;;;;5051130;28;20221;-35
2022/11/28 04:54:12;;;;;;;6.03;4.70;;;;;;;;;;5039774;28;20214;-35
2022/11/28 04:56:41;;;;;;;7.47;5.17;;;;;;;;;;5044932;28;20200;-33
2022/11/28 04:59:09;;;;;;;4.67;3.40;;;;;;;;;;5048158;28;20202;-39
2022/11/28 05:01:38;;;;;;;5.13;3.63;;;;;;;;;;5036578;28;20228;-34
2022/11/28 05:04:06;;;;;;;6.17;4.83;;;;;;;;;;5050491;28;20198;-32
2022/11/28 05:06:34;;;;;;;5.93;4.87;;;;;;;;;;5050659;28;20212;-31
2022/11/28 05:09:01;;;;;;;7.67;6.10;;;;;;;;;;5045739;28;20297;-35
2022/11/28 05:11:30;;;;;;;7.43;5.13;;;;;;;;;;5050123;28;20317;-33
2022/11/28 05:13:57;;;;;;;8.20;4.83;;;;;;;;;;5050190;28;20205;-33
2022/11/28 05:16:24;;;;;;;5.03;4.27;;;;;;;;;;5042012;28;20202;-35
2022/11/28 05:18:51;;;;;;;5.53;4.17;;;;;;;;;;5050202;28;20285;-32
2022/11/28 05:21:18;;;;;;;4.37;3.83;;;;;;;;;;5050464;28;20228;-35
2022/11/28 05:23:46;;;;;;;6.23;4.87;;;;;;;;;;5034079;28;20205;-36
2022/11/28 05:26:15;;;;;;;5.77;4.00;;;;;;;;;;5048917;28;20212;-36
2022/11/28 05:28:45;;;;;;;4.87;4.20;;;;;;;;;;5049938;28;20220;-36
2022/11/28 05:31:13;;;;;;;5.27;4.07;;;;;;;;;;5032725;28;20227;-36
2022/11/28 05:33:40;;;;;;;5.90;4.03;;;;;;;;;;5050548;28;20216;-37
2022/11/28 05:36:08;;;;;;;5.73;4.27;;;;;;;;;;5050461;28;20210;-35
2022/11/28 05:38:36;;;;;;;4.90;4.10;;;;;;;;;;5035565;28;20206;-42
2022/11/28 05:41:03;;;;;;;5.33;4.23;;;;;;;;;;5047205;28;20240;-37
2022/11/28 05:43:30;;;;;;;6.83;4.70;;;;;;;;;;5050408;28;20216;-40
2022/11/28 05:45:59;;;;;;;4.43;3.63;;;;;;;;;;5038347;28;20204;-38
2022/11/28 05:48:26;;;;;;;4.33;3.70;;;;;;;;;;5042115;28;20198;-39
2022/11/28 05:50:53;;;;;;;5.13;4.30;;;;;;;;;;5050082;28;20218;-40
2022/11/28 05:53:20;;;;;;;5.60;4.20;;;;;;;;;;5050179;28;20206;-40
2022/11/28 05:55:48;;;;;;;5.53;4.07;;;;;;;;;;5043610;28;20481;-36
2022/11/28 05:58:15;;;;;;;5.07;4.20;;;;;;;;;;5043952;28;20206;-35
2022/11/28 06:00:42;;;;;;;5.27;4.13;;;;;;;;;;5033154;28;20265;-35
2022/11/28 06:03:11;;;;;;;7.23;4.83;;;;;;;;;;5046255;28;20205;-33
2022/11/28 06:05:39;;;;;;;6.60;4.47;;;;;;;;;;5049210;28;20201;-35
2022/11/28 06:08:07;;;;;;;4.43;4.00;;;;;;;;;;5050099;28;20214;-35
2022/11/28 06:10:34;;;;;;;4.63;4.00;;;;;;;;;;5044062;28;20308;-38
2022/11/28 06:13:01;;;;;;;5.67;4.07;;;;;;;;;;5047905;28;20201;-36
2022/11/28 06:15:29;;;;;;;6.20;4.40;;;;;;;;;;5044354;28;20216;-36
2022/11/28 06:17:56;;;;;;;9.17;4.57;;;;;;;;;;5046511;28;20558;-34
2022/11/28 06:20:25;;;;;;;4.97;4.10;;;;;;;;;;5050054;28;20217;-37
2022/11/28 06:22:52;;;;;;;4.47;3.77;;;;;;;;;;5048489;28;20229;-41
2022/11/28 06:25:19;;;;;;;5.00;4.33;;;;;;;;;;5050151;28;20208;-33
2022/11/28 06:27:46;;;;;;;6.70;4.40;;;;;;;;;;5054755;28;20198;-42
2022/11/28 06:30:13;;;;;;;4.10;3.70;;;;;;;;;;5046241;28;20210;-34
2022/11/28 06:32:41;;;;;;;5.03;3.83;;;;;;;;;;5051260;28;20206;-37
2022/11/28 06:35:08;;;;;;;4.43;3.83;;;;;;;;;;5052533;28;20285;-40
2022/11/28 06:37:36;;;;;;;5.17;4.10;;;;;;;;;;5050012;28;20206;-39
2022/11/28 06:40:04;;;;;;;4.70;3.70;;;;;;;;;;5048297;28;20209;-40
2022/11/28 06:42:31;;;;;;;4.37;3.50;;;;;;;;;;5053513;28;20222;-34
2022/11/28 06:44:58;;;;;;;5.23;3.90;;;;;;;;;;5046528;28;20230;-38
2022/11/28 06:47:25;;;;;;;4.17;3.40;;;;;;;;;;5046154;28;20269;-40
2022/11/28 06:49:52;;;;;;;5.20;3.67;;;;;;;;;;5047110;28;20208;-39
2022/11/28 06:52:19;;;;;;;5.50;4.77;;;;;;;;;;5045885;28;20218;-38
2022/11/28 06:54:48;;;;;;;5.83;4.37;;;;;;;;;;5051116;28;20223;-42
2022/11/28 06:57:15;;;;;;;13.60;12.50;;;;;;;;;;5055026;28;20316;-36
2022/11/28 06:59:42;;;;;;;8.83;8.03;;;;;;;;;;5047035;28;20209;-42
2022/11/28 07:02:11;;;;;;;8.80;7.73;;;;;;;;;;5046710;28;20225;-32
2022/11/28 07:04:38;;;;;;;6.27;5.67;;;;;;;;;;5052528;28;20209;-38
2022/11/28 07:07:05;;;;;;;6.27;5.37;;;;;;;;;;5051185;28;20212;-34
2022/11/28 07:09:32;;;;;;;9.13;8.23;;;;;;;;;;5044024;28;20208;-39
2022/11/28 07:12:01;;;;;;;7.43;5.60;;;;;;;;;;5051855;28;20637;-38
2022/11/28 07:14:45;;;;;;;6.70;6.00;;;;;;;;;;5050510;28;20217;-39
2022/11/28 07:17:12;;;;;;;7.67;6.87;;;;;;;;;;5045794;28;20356;-34
2022/11/28 07:19:39;;;;;;;7.63;6.77;;;;;;;;;;5055216;28;20212;-40
2022/11/28 07:22:06;;;;;;;8.50;7.60;;;;;;;;;;5055023;28;20225;-41
2022/11/28 07:24:33;;;;;;;6.43;5.00;;;;;;;;;;5045034;28;20212;-33
2022/11/28 07:27:03;;;;;;;7.17;6.47;;;;;;;;;;5054502;28;20202;-36
2022/11/28 07:29:35;;;;;;;8.93;7.90;;;;;;;;;;5051687;28;20204;-39
2022/11/28 07:32:02;;;;;;;7.67;6.43;;;;;;;;;;5043151;28;20304;-42
2022/11/28 07:34:29;;;;;;;8.83;6.30;;;;;;;;;;5054843;28;20212;-34
2022/11/28 07:36:56;;;;;;;10.70;6.27;;;;;;;;;;5055051;28;20213;-35
2022/11/28 07:39:23;;;;;;;8.43;5.80;;;;;;;;;;5048938;28;20300;-41
2022/11/28 07:41:50;;;;;;;6.80;5.30;;;;;;;;;;5043740;28;20222;-34
2022/11/28 07:44:19;;;;;;;10.53;6.50;;;;;;;;;;5041906;28;21631;-34
2022/11/28 07:46:46;;;;;;;9.57;6.80;;;;;;;;;;5044314;28;20213;-38
2022/11/28 07:49:13;;;;;;;6.37;5.50;;;;;;;;;;5045409;28;20277;-37
2022/11/28 07:51:41;;;;;;;7.37;6.47;;;;;;;;;;5054521;28;20222;-33
2022/11/28 07:54:08;;;;;;;8.03;5.77;;;;;;;;;;5042992;28;20293;-36
2022/11/28 07:56:37;;;;;;;8.23;5.77;;;;;;;;;;5047438;28;20198;-38
2022/11/28 07:59:04;;;;;;;8.73;5.43;;;;;;;;;;5052154;28;20209;-33
2022/11/28 08:01:34;;;;;;;7.23;5.20;;;;;;;;;;5045760;28;20237;-31
2022/11/28 08:04:02;;;;;;;8.43;5.67;;;;;;;;;;5050694;28;20205;-35
2022/11/28 08:06:30;;;;;;;7.47;5.37;;;;;;;;;;5054113;28;20213;-37
2022/11/28 08:08:58;;;;;;;7.20;5.20;;;;;;;;;;5049380;28;20545;-37
2022/11/28 08:11:27;;;;;;;10.13;5.37;;;;;;;;;;5043656;28;20289;-33
2022/11/28 08:14:02;;;;;;;7.47;5.47;;;;;;;;;;5052507;28;20259;-34
2022/11/28 08:16:29;;;;;;;6.50;5.00;;;;;;;;;;5035095;28;20207;-33
2022/11/28 08:19:00;;;;;;;6.90;4.67;;;;;;;;;;5052575;28;20202;-36
2022/11/28 08:21:28;;;;;;;8.87;5.47;;;;;;;;;;5053580;28;20218;-39
2022/11/28 08:23:56;;;;;;;7.53;5.37;;;;;;;;;;5047886;28;20276;-37
2022/11/28 08:26:24;;;;;;;7.80;4.93;;;;;;;;;;5047938;28;20568;-40
2022/11/28 08:28:52;;;;;;;8.83;5.40;;;;;;;;;;5054250;28;20214;-35
2022/11/28 08:31:20;;;;;;;11.53;6.53;;;;;;;;;;5045262;28;20233;-33
2022/11/28 08:33:48;;;;;;;8.07;5.50;;;;;;;;;;5051508;28;20217;-37
2022/11/28 08:36:18;;;;;;;7.93;5.30;;;;;;;;;;5054270;28;20212;-42
2022/11/28 08:38:45;;;;;;;7.97;5.23;;;;;;;;;;5052377;28;20210;-37
2022/11/28 08:41:13;;;;;;;7.20;5.43;;;;;;;;;;5049450;28;20369;-39
2022/11/28 08:43:40;;;;;;;8.13;5.20;;;;;;;;;;5052963;28;20222;-32
2022/11/28 08:46:09;;;;;;;8.03;5.33;;;;;;;;;;5041565;28;20231;-32
2022/11/28 08:48:37;;;;;;;8.50;5.83;;;;;;;;;;5049104;28;20199;-34
2022/11/28 08:51:04;;;;;;;9.93;5.90;;;;;;;;;;5050656;28;20218;-37
2022/11/28 08:53:33;;;;;;;9.10;6.43;;;;;;;;;;5041954;28;20198;-32
2022/11/28 08:56:00;;;;;;;8.60;6.13;;;;;;;;;;5052179;28;20213;-33
2022/11/28 08:58:27;;;;;;;8.57;6.17;;;;;;;;;;5033275;28;20230;-34
2022/11/28 09:00:54;;;;;;;7.30;5.97;;;;;;;;;;5036396;28;20222;-37
2022/11/28 09:03:21;;;;;;;12.37;7.10;;;;;;;;;;5051555;28;20217;-36
2022/11/28 09:05:48;;;;;;;12.73;6.53;;;;;;;;;;5038832;28;20210;-37
2022/11/28 09:08:16;;;;;;;8.37;7.27;;;;;;;;;;5042905;28;20217;-36
2022/11/28 09:10:45;;;;;;;9.10;7.00;;;;;;;;;;5053010;28;20233;-32
2022/11/28 09:13:13;;;;;;;8.20;5.90;;;;;;;;;;5053437;28;20204;-36
2022/11/28 09:15:41;;;;;;;14.47;7.47;;;;;;;;;;5040141;28;20214;-28
2022/11/28 09:18:09;;;;;;;8.90;6.77;;;;;;;;;;5040783;28;20250;-33
2022/11/28 09:20:36;;;;;;;11.67;7.93;;;;;;;;;;5051979;28;20217;-36
2022/11/28 09:23:03;;;;;;;10.97;7.60;;;;;;;;;;5052868;28;20222;-36
2022/11/28 09:25:30;;;;;;;10.20;7.37;;;;;;;;;;5041592;28;20308;-36
2022/11/28 09:28:00;;;;;;;9.97;6.50;;;;;;;;;;5045932;28;20264;-34
2022/11/28 09:35:22;;;;;;;11.23;6.40;;;;;;;;;;5068208;28;20247;-26
2022/11/28 09:37:49;;;;;;;11.00;6.07;;;;;;;;;;5068142;28;20205;-26
2022/11/28 09:40:17;;;;;;;7.70;5.70;;;;;;;;;;5062099;28;20251;-23
2022/11/28 09:42:45;;;;;;;10.67;6.37;;;;;;;;;;5069681;28;20224;-23
2022/11/28 09:45:16;;;;;;;8.03;6.37;;;;;;;;;;5057992;28;20212;-24
2022/11/28 09:47:45;;;;;;;9.10;6.23;;;;;;;;;;5056656;28;20253;-26
2022/11/28 09:50:15;;;;;;;8.33;6.40;;;;;;;;;;5070665;28;20241;-24
2022/11/28 09:52:47;;;;;;;11.13;7.00;;;;;;;;;;5081443;28;20220;-26
2022/11/28 09:55:17;;;;;;;10.83;6.80;;;;;;;;;;5054526;28;20215;-26
2022/11/28 09:57:46;;;;;;;9.73;7.13;;;;;;;;;;5069363;28;20197;-26
2022/11/28 10:00:17;;;;;;;11.13;6.57;;;;;;;;;;5060375;28;20210;-24
2022/11/28 10:02:47;;;;;;;9.33;5.97;;;;;;;;;;5056651;28;20280;-24
2022/11/28 10:05:17;;;;;;;8.13;6.23;;;;;;;;;;5069433;28;20206;-26
2022/11/28 10:07:52;;;;;;;8.70;6.97;;;;;;;;;;5069810;28;20205;-26
2022/11/28 10:10:24;;;;;;;8.47;6.73;;;;;;;;;;5064913;28;20228;-26
2022/11/28 10:12:57;;;;;;;9.23;6.50;;;;;;;;;;5069033;28;20607;-25
2022/11/28 10:15:34;;;;;;;8.27;5.87;;;;;;;;;;5055438;28;20212;-26
2022/11/28 10:18:07;;;;;;;9.53;6.37;;;;;;;;;;5058486;28;20207;-25
2022/11/28 10:20:37;;;;;;;8.47;6.17;;;;;;;;;;5066522;28;20297;-26
2022/11/28 10:23:06;;;;;;;33.97;18.00;;;;;;;;;;5082627;28;20223;-24
2022/11/28 10:25:35;;;;;;;11.47;8.07;;;;;;;;;;5067729;28;20207;-26
2022/11/28 10:28:05;;;;;;;11.97;6.70;;;;;;;;;;5069888;28;20205;-26
2022/11/28 10:30:36;;;;;;;10.93;7.07;;;;;;;;;;5058926;28;20252;-23
2022/11/28 10:33:05;;;;;;;10.13;6.97;;;;;;;;;;5061453;28;20281;-24
2022/11/28 10:35:36;;;;;;;11.60;7.67;;;;;;;;;;5070603;28;20201;-26
2022/11/28 10:38:03;;;;;;;9.87;7.07;;;;;;;;;;5071596;28;20554;-27
2022/11/28 10:40:35;;;;;;;13.10;7.90;;;;;;;;;;5058775;28;20225;-26
2022/11/28 10:43:04;;;;;;;14.33;8.20;;;;;;;;;;5063065;28;20217;-26
2022/11/28 10:45:37;;;;;;;14.50;7.53;;;;;;;;;;5068485;28;20227;-24
2022/11/28 10:48:19;;;;;;;12.00;7.87;;;;;;;;;;5062372;28;20220;-27
2022/11/28 10:50:51;;;;;;;10.70;7.07;;;;;;;;;;5060180;28;21520;-25
2022/11/28 10:53:25;;;;;;;13.03;8.30;;;;;;;;;;5062478;28;20202;-24
2022/11/28 10:55:57;;;;;;;12.70;8.07;;;;;;;;;;5066208;28;20201;-26
2022/11/28 10:58:25;;;;;;;12.40;7.43;;;;;;;;;;5057006;28;20208;-24
2022/11/28 11:00:55;;;;;;;12.63;7.50;;;;;;;;;;5047999;28;20317;-27
2022/11/28 11:03:26;;;;;;;13.63;7.67;;;;;;;;;;5057124;28;20220;-27
2022/11/28 11:05:53;;;;;;;11.97;7.60;;;;;;;;;;5065838;28;20243;-27
2022/11/28 11:08:21;;;;;;;14.73;7.70;;;;;;;;;;5063488;28;20341;-24
2022/11/28 11:10:50;;;;;;;12.57;7.30;;;;;;;;;;5050139;28;20229;-25
2022/11/28 11:13:19;;;;;;;11.00;7.33;;;;;;;;;;5066418;28;20638;-26
2022/11/28 11:15:47;;;;;;;12.10;7.70;;;;;;;;;;5062027;28;20198;-28
2022/11/28 11:18:22;;;;;;;11.87;7.40;;;;;;;;;;5070599;28;20206;-25
2022/11/28 11:20:51;;;;;;;14.90;7.90;;;;;;;;;;5080860;28;20277;-25
2022/11/28 11:23:19;;;;;;;10.67;7.37;;;;;;;;;;5068021;28;20251;-25
2022/11/28 11:25:48;;;;;;;11.93;8.73;;;;;;;;;;5069041;28;20198;-25
2022/11/28 11:28:26;;;;;;;13.03;8.30;;;;;;;;;;5074501;28;20205;-24
2022/11/28 11:30:59;;;;;;;12.70;7.50;;;;;;;;;;5065117;28;20256;-23
2022/11/28 11:33:29;;;;;;;14.27;8.00;;;;;;;;;;5071384;28;20209;-27
2022/11/28 11:35:56;;;;;;;11.50;7.67;;;;;;;;;;5072260;28;20194;-28
2022/11/28 11:38:28;;;;;;;12.27;7.50;;;;;;;;;;5068626;28;20201;-24
2022/11/28 11:40:55;;;;;;;11.67;8.10;;;;;;;;;;5070401;28;20243;-23
2022/11/28 11:43:29;;;;;;;11.97;7.93;;;;;;;;;;5071491;28;20225;-25
2022/11/28 11:46:05;;;;;;;12.40;8.37;;;;;;;;;;5067180;28;20201;-24
2022/11/28 11:48:36;;;;;;;13.80;8.73;;;;;;;;;;5071949;28;20287;-25
2022/11/28 11:51:04;;;;;;;11.37;7.23;;;;;;;;;;5080791;28;20230;-26
2022/11/28 11:53:31;;;;;;;12.30;7.53;;;;;;;;;;5071706;28;20194;-24
2022/11/28 11:56:01;;;;;;;10.30;7.13;;;;;;;;;;5071977;28;20207;-26
2022/11/28 11:58:32;;;;;;;11.87;7.73;;;;;;;;;;5069943;28;20272;-23
2022/11/28 12:01:00;;;;;;;13.47;7.53;;;;;;;;;;5061582;28;20221;-27
2022/11/28 12:03:29;;;;;;;13.23;8.27;;;;;;;;;;5063874;28;20223;-24
2022/11/28 12:05:58;;;;;;;12.60;8.10;;;;;;;;;;5071762;28;20203;-29
2022/11/28 12:08:31;;;;;;;12.00;8.00;;;;;;;;;;5071884;28;20296;-23
2022/11/28 12:11:06;;;;;;;13.87;8.30;;;;;;;;;;5060700;28;20236;-26
2022/11/28 12:13:33;;;;;;;12.60;8.53;;;;;;;;;;5063681;28;20193;-26
2022/11/28 12:16:04;;;;;;;13.33;8.23;;;;;;;;;;5064495;28;20205;-25
2022/11/28 12:18:34;;;;;;;10.50;7.83;;;;;;;;;;5073593;28;20200;-25
2022/11/28 12:21:07;;;;;;;12.03;9.13;;;;;;;;;;5083105;28;20286;-26
2022/11/28 12:23:41;;;;;;;14.23;8.57;;;;;;;;;;5058457;28;20220;-26
2022/11/28 12:26:11;;;;;;;12.83;8.83;;;;;;;;;;5070904;28;20201;-26
2022/11/28 12:28:44;;;;;;;13.70;9.23;;;;;;;;;;5078861;28;20209;-26
2022/11/28 12:31:17;;;;;;;12.67;8.40;;;;;;;;;;5053729;28;20229;-25
2022/11/28 12:33:49;;;;;;;11.77;7.43;;;;;;;;;;5065118;28;20204;-24
2022/11/28 12:36:21;;;;;;;10.60;7.13;;;;;;;;;;5067398;28;20205;-26
2022/11/28 12:39:09;;;;;;;15.97;6.97;;;;;;;;;;5070324;28;20374;-27
2022/11/28 12:41:44;;;;;;;14.87;7.70;;;;;;;;;;5064703;28;20237;-27
2022/11/28 12:44:15;;;;;;;12.77;7.80;;;;;;;;;;5074792;28;20217;-25
2022/11/28 12:46:47;;;;;;;12.50;8.17;;;;;;;;;;5051767;28;20311;-26
2022/11/28 12:49:17;;;;;;;13.27;7.90;;;;;;;;;;5069118;28;20209;-24
2022/11/28 12:51:52;;;;;;;12.23;8.30;;;;;;;;;;5068684;28;20223;-27
2022/11/28 12:54:29;;;;;;;13.73;9.23;;;;;;;;;;5062697;28;20211;-24
2022/11/28 12:57:01;;;;;;;14.87;9.27;;;;;;;;;;5068409;28;20196;-26
2022/11/28 12:59:33;;;;;;;14.80;8.93;;;;;;;;;;5070452;28;20206;-25
2022/11/28 13:02:02;;;;;;;16.00;9.50;;;;;;;;;;5080729;28;20304;-23
2022/11/28 13:04:39;;;;;;;14.63;9.00;;;;;;;;;;5065351;28;20227;-27
2022/11/28 13:07:12;;;;;;;15.83;9.27;;;;;;;;;;5074813;28;20201;-25
2022/11/28 13:09:43;;;;;;;14.00;9.63;;;;;;;;;;5059808;28;20201;-25
2022/11/28 13:12:18;;;;;;;15.37;10.20;;;;;;;;;;5069874;28;20228;-25
2022/11/28 13:14:49;;;;;;;14.07;9.50;;;;;;;;;;5073662;28;20220;-26
2022/11/28 13:17:24;;;;;;;12.90;9.13;;;;;;;;;;5062518;28;20209;-28
2022/11/28 13:19:55;;;;;;;16.37;9.83;;;;;;;;;;5072817;28;20711;-25
2022/11/28 13:22:25;;;;;;;13.23;8.97;;;;;;;;;;5082541;28;20204;-24
2022/11/28 13:24:55;;;;;;;13.87;9.60;;;;;;;;;;5068661;28;20221;-24
2022/11/28 13:27:31;;;;;;;14.10;10.17;;;;;;;;;;5068577;28;20204;-25
2022/11/28 13:30:04;;;;;;;17.10;10.20;;;;;;;;;;5060137;28;20205;-25
2022/11/28 13:32:36;;;;;;;18.23;11.10;;;;;;;;;;5062267;28;20216;-26
2022/11/28 13:35:04;;;;;;;17.33;9.70;;;;;;;;;;5069584;28;20267;-27
2022/11/28 13:37:34;;;;;;;17.43;10.30;;;;;;;;;;5069225;28;20692;-25
2022/11/28 13:40:05;;;;;;;16.03;9.90;;;;;;;;;;5063000;28;20253;-25
2022/11/28 13:42:35;;;;;;;15.33;9.70;;;;;;;;;;5067716;28;20204;-25
2022/11/28 13:45:06;;;;;;;17.73;10.50;;;;;;;;;;5062872;28;20396;-26
2022/11/28 13:47:34;;;;;;;14.83;9.53;;;;;;;;;;5069633;28;20205;-27
2022/11/28 13:50:20;;;;;;;15.03;9.53;;;;;;;;;;5069291;28;20338;-26
2022/11/28 13:52:58;;;;;;;14.80;9.83;;;;;;;;;;5066135;28;20202;-27
2022/11/28 13:55:37;;;;;;;18.23;10.30;;;;;;;;;;5064545;28;20212;-26
2022/11/28 13:58:11;;;;;;;14.73;9.93;;;;;;;;;;5058810;28;20227;-26
2022/11/28 14:00:41;;;;;;;16.40;10.03;;;;;;;;;;5054479;28;20313;-24
2022/11/28 14:03:17;;;;;;;16.10;9.20;;;;;;;;;;5059240;28;20217;-26
2022/11/28 14:05:45;;;;;;;16.57;9.40;;;;;;;;;;5069663;28;20208;-27
2022/11/28 14:08:26;;;;;;;16.77;9.77;;;;;;;;;;5070114;28;20212;-25
2022/11/28 14:10:59;;;;;;;14.00;8.90;;;;;;;;;;5056494;28;21145;-27
2022/11/28 14:13:43;;;;;;;13.80;9.03;;;;;;;;;;5069009;28;20199;-24
2022/11/28 14:16:19;;;;;;;18.53;9.83;;;;;;;;;;5062173;28;20217;-26
2022/11/28 14:18:59;;;;;;;14.17;8.80;;;;;;;;;;5069548;28;20212;-26
2022/11/28 14:21:32;;;;;;;15.50;9.20;;;;;;;;;;5071890;28;20224;-27
2022/11/28 14:24:04;;;;;;;13.77;9.27;;;;;;;;;;5078744;28;20680;-27
2022/11/28 14:26:32;;;;;;;14.83;9.60;;;;;;;;;;5061532;28;20198;-26
2022/11/28 14:29:00;;;;;;;14.27;9.20;;;;;;;;;;5063351;28;20224;-25
2022/11/28 14:31:29;;;;;;;15.47;8.93;;;;;;;;;;5064808;28;20225;-26
2022/11/28 14:34:01;;;;;;;16.23;9.70;;;;;;;;;;5068856;28;20205;-25
2022/11/28 14:36:29;;;;;;;15.80;10.37;;;;;;;;;;5068495;28;20252;-27
2022/11/28 14:39:09;;;;;;;14.80;9.33;;;;;;;;;;5066543;28;20254;-27
2022/11/28 14:41:51;;;;;;;13.20;8.63;;;;;;;;;;5057724;28;20324;-27
2022/11/28 14:44:38;;;;;;;15.00;10.07;;;;;;;;;;5064569;28;20250;-27
2022/11/28 14:47:06;;;;;;;18.63;10.07;;;;;;;;;;5072434;28;20205;-27
2022/11/28 14:49:33;;;;;;;16.77;10.47;;;;;;;;;;5063809;28;20201;-27
2022/11/28 14:52:30;;;;;;;15.23;9.20;;;;;;;;;;5079413;28;20225;-24
2022/11/28 14:54:59;;;;;;;16.97;9.70;;;;;;;;;;5053206;28;20281;-25
2022/11/28 14:57:29;;;;;;;16.20;9.73;;;;;;;;;;5075074;28;20213;-24
2022/11/28 14:59:58;;;;;;;16.33;9.73;;;;;;;;;;5059751;28;20243;-26
2022/11/28 15:02:51;;;;;;;16.10;9.50;;;;;;;;;;5055040;28;20216;-28